SCIE 221000Z 36005KT 9999 BKN015 10/10 Q1014